Time;durP1;ratioP1;P1;durP2;ratioP2;P2;SDS_P1;SDS_P2;PMS_P1;PMS_P2;Temp;Humidity;BMP_temperature;BMP_pressure;BME280_temperature;BME280_humidity;BME280_pressure;Samples;Min_cycle;Max_cycle;Signal;HPM_P1;HPM_P2
2021/09/29 00:01:51;;;;;;;14.87;11.20;;;13.00;99.90;;;;;;6229186;28;20326;-73
2021/09/29 00:04:54;;;;;;;15.70;13.27;;;12.90;99.90;;;;;;6210171;28;20583;-72
2021/09/29 00:07:56;;;;;;;16.33;13.13;;;12.90;99.90;;;;;;6230960;28;20203;-73
2021/09/29 00:10:58;;;;;;;14.77;12.07;;;12.80;99.90;;;;;;6245733;28;20199;-72
2021/09/29 00:14:00;;;;;;;14.17;12.20;;;12.80;99.90;;;;;;6246737;28;20713;-72
2021/09/29 00:17:03;;;;;;;15.50;11.80;;;12.70;99.90;;;;;;6246918;28;20203;-74
2021/09/29 00:20:06;;;;;;;15.13;12.30;;;12.60;99.90;;;;;;6237638;28;20228;-73
2021/09/29 00:23:08;;;;;;;18.23;12.47;;;12.60;99.90;;;;;;6237208;28;20204;-72
2021/09/29 00:26:12;;;;;;;12.90;11.50;;;12.60;99.90;;;;;;6239137;28;20195;-72
2021/09/29 00:29:14;;;;;;;13.30;10.70;;;12.50;99.90;;;;;;6245242;28;20214;-72
2021/09/29 00:32:18;;;;;;;12.27;10.73;;;12.50;99.90;;;;;;6232702;28;20195;-73
2021/09/29 00:35:21;;;;;;;11.17;9.93;;;12.40;99.90;;;;;;6221516;28;20193;-73
2021/09/29 00:38:23;;;;;;;12.20;10.20;;;12.40;99.90;;;;;;6227935;28;20189;-72
2021/09/29 00:41:25;;;;;;;11.30;9.90;;;12.30;99.90;;;;;;6244419;28;20257;-72
2021/09/29 00:44:28;;;;;;;10.37;9.00;;;12.30;99.90;;;;;;6246138;28;20190;-72
2021/09/29 00:47:32;;;;;;;11.60;9.23;;;12.20;99.90;;;;;;6244528;28;20205;-72
2021/09/29 00:50:35;;;;;;;10.60;8.27;;;12.10;99.90;;;;;;6246052;28;20202;-72
2021/09/29 00:53:37;;;;;;;10.33;8.23;;;12.00;99.90;;;;;;6244663;28;20268;-72
2021/09/29 00:56:40;;;;;;;10.23;8.13;;;12.00;99.90;;;;;;6228386;28;20204;-73
2021/09/29 00:59:42;;;;;;;11.87;8.00;;;11.90;99.90;;;;;;6246371;28;20224;-72
2021/09/29 01:02:44;;;;;;;13.60;8.70;;;11.80;99.90;;;;;;6244526;28;20229;-72
2021/09/29 01:05:47;;;;;;;14.57;8.53;;;11.80;99.90;;;;;;6246073;28;20406;-72
2021/09/29 01:08:56;;;;;;;11.03;7.53;;;11.70;99.90;;;;;;6244269;28;20190;-72
2021/09/29 01:12:24;;;;;;;11.67;8.63;;;11.70;99.90;;;;;;6228331;28;20287;-72
2021/09/29 01:15:29;;;;;;;11.43;8.07;;;11.60;99.90;;;;;;6219989;28;20602;-72
2021/09/29 01:18:42;;;;;;;11.50;8.30;;;11.50;99.90;;;;;;6227808;28;20193;-73
2021/09/29 01:21:50;;;;;;;9.47;8.30;;;11.50;99.90;;;;;;6244413;28;20723;-72
2021/09/29 01:25:00;;;;;;;10.53;8.33;;;11.50;99.90;;;;;;6245509;28;20277;-72
2021/09/29 01:28:04;;;;;;;11.23;7.87;;;11.40;99.90;;;;;;6244424;28;20276;-72
2021/09/29 01:31:08;;;;;;;11.30;7.77;;;11.40;99.90;;;;;;6235592;28;20345;-72
2021/09/29 01:34:11;;;;;;;9.37;7.63;;;11.30;99.90;;;;;;6245659;28;20203;-72
2021/09/29 01:37:15;;;;;;;10.57;7.50;;;11.30;99.90;;;;;;6245489;28;20219;-72
2021/09/29 01:40:17;;;;;;;8.97;6.90;;;11.30;99.90;;;;;;6245305;28;20687;-72
2021/09/29 01:43:20;;;;;;;9.60;7.90;;;11.30;99.90;;;;;;6228142;28;20315;-72
2021/09/29 01:46:24;;;;;;;9.13;7.57;;;11.20;99.90;;;;;;6245360;28;20259;-71
2021/09/29 01:49:49;;;;;;;9.20;7.67;;;11.20;99.90;;;;;;6245359;28;20556;-72
2021/09/29 01:52:53;;;;;;;8.07;7.03;;;11.20;99.90;;;;;;6243850;28;20229;-72
2021/09/29 01:55:57;;;;;;;10.80;7.97;;;11.20;99.90;;;;;;6245916;28;20546;-72
2021/09/29 01:59:03;;;;;;;7.33;6.40;;;11.20;99.90;;;;;;6249072;28;20246;-72
2021/09/29 02:02:06;;;;;;;8.87;6.77;;;11.10;99.90;;;;;;6242600;28;20262;-72
2021/09/29 02:05:09;;;;;;;8.20;7.00;;;11.10;99.90;;;;;;6249716;28;20215;-72
2021/09/29 02:08:12;;;;;;;10.33;7.63;;;11.00;99.90;;;;;;6249795;28;20569;-72
2021/09/29 02:11:14;;;;;;;12.20;7.70;;;11.00;99.90;;;;;;6249673;28;20188;-72
2021/09/29 02:14:18;;;;;;;9.37;7.37;;;10.90;99.90;;;;;;6249694;28;20186;-74
2021/09/29 02:17:20;;;;;;;10.00;7.60;;;10.80;99.90;;;;;;6224995;28;20193;-72
2021/09/29 02:20:23;;;;;;;10.40;7.30;;;10.80;99.90;;;;;;6246474;28;20283;-72
2021/09/29 02:23:25;;;;;;;11.87;7.87;;;10.70;99.90;;;;;;6231400;28;20195;-72
2021/09/29 02:26:27;;;;;;;12.13;7.33;;;10.70;99.90;;;;;;6248329;28;20192;-73
2021/09/29 02:29:29;;;;;;;8.43;7.57;;;10.70;99.90;;;;;;6231904;28;20192;-72
2021/09/29 02:32:32;;;;;;;12.70;8.33;;;10.70;99.90;;;;;;6249070;28;20275;-72
2021/09/29 02:35:34;;;;;;;12.07;7.80;;;10.60;99.90;;;;;;6231616;28;20288;-74
2021/09/29 02:38:37;;;;;;;14.77;7.57;;;10.60;99.90;;;;;;6231441;28;20216;-71
2021/09/29 02:41:40;;;;;;;9.70;8.07;;;10.50;99.90;;;;;;6249441;28;20695;-72
2021/09/29 02:44:43;;;;;;;9.30;7.07;;;10.50;99.90;;;;;;6248783;28;20622;-71
2021/09/29 02:47:45;;;;;;;12.40;7.33;;;10.50;99.90;;;;;;6231234;28;20663;-72
2021/09/29 02:50:47;;;;;;;11.50;7.57;;;10.40;99.90;;;;;;6247585;28;20287;-72
2021/09/29 02:53:50;;;;;;;10.40;7.90;;;10.50;99.90;;;;;;6247380;28;20663;-72
2021/09/29 02:56:52;;;;;;;9.23;7.13;;;10.50;99.90;;;;;;6230986;28;20204;-73
2021/09/29 02:59:54;;;;;;;11.47;7.43;;;10.60;99.90;;;;;;6250785;28;20302;-71
2021/09/29 03:02:56;;;;;;;9.50;7.57;;;10.50;99.90;;;;;;6248327;28;20353;-72
2021/09/29 03:05:59;;;;;;;10.50;6.70;;;10.50;99.90;;;;;;6230863;28;20200;-72
2021/09/29 03:09:02;;;;;;;9.30;7.00;;;10.60;99.90;;;;;;6248217;28;20188;-72
2021/09/29 03:12:04;;;;;;;11.03;7.57;;;10.50;99.90;;;;;;6246960;28;20235;-72
2021/09/29 03:15:07;;;;;;;8.67;7.10;;;10.60;99.90;;;;;;6246681;28;20203;-73
2021/09/29 03:18:09;;;;;;;8.57;6.97;;;10.60;99.90;;;;;;6248314;28;20675;-71
2021/09/29 03:21:12;;;;;;;9.43;7.27;;;10.60;99.90;;;;;;6248118;28;20209;-71
2021/09/29 03:24:19;;;;;;;9.10;7.17;;;10.60;99.90;;;;;;6246707;28;20275;-72
2021/09/29 03:27:21;;;;;;;10.17;7.27;;;10.60;99.90;;;;;;6246601;28;20243;-71
2021/09/29 03:30:23;;;;;;;9.93;7.67;;;10.60;99.90;;;;;;6237527;28;20599;-72
2021/09/29 03:33:25;;;;;;;10.23;7.80;;;10.60;99.90;;;;;;6230230;28;20246;-71
2021/09/29 03:36:27;;;;;;;10.73;7.27;;;10.50;99.90;;;;;;6247824;28;20223;-72
2021/09/29 03:39:30;;;;;;;9.80;7.83;;;10.50;99.90;;;;;;6247604;28;20564;-72
2021/09/29 03:42:32;;;;;;;12.00;7.67;;;10.50;99.90;;;;;;6246063;28;20204;-72
2021/09/29 03:45:35;;;;;;;13.10;7.73;;;10.50;99.90;;;;;;6247677;28;20192;-73
2021/09/29 03:48:37;;;;;;;11.40;8.33;;;10.50;99.90;;;;;;6247494;28;20192;-72
2021/09/29 03:51:39;;;;;;;9.63;8.17;;;10.50;99.90;;;;;;6247451;28;20184;-73
2021/09/29 03:54:41;;;;;;;9.53;7.70;;;10.50;99.90;;;;;;6229920;28;20573;-72
2021/09/29 03:57:44;;;;;;;10.77;7.60;;;10.40;99.90;;;;;;6247096;28;20187;-73
2021/09/29 04:00:46;;;;;;;9.20;7.90;;;10.40;99.90;;;;;;6239760;28;20221;-72
2021/09/29 04:03:48;;;;;;;9.87;7.40;;;10.40;99.90;;;;;;6225047;28;20331;-72
2021/09/29 04:06:50;;;;;;;9.60;7.57;;;10.40;99.90;;;;;;6240046;28;20192;-74
2021/09/29 04:09:52;;;;;;;9.27;8.27;;;10.40;99.90;;;;;;6247073;28;20682;-72
2021/09/29 04:12:55;;;;;;;9.93;8.30;;;10.40;99.90;;;;;;6245518;28;20610;-72
2021/09/29 04:15:57;;;;;;;10.73;7.77;;;10.40;99.90;;;;;;6245693;28;20192;-73
2021/09/29 04:19:00;;;;;;;9.47;8.47;;;10.40;99.90;;;;;;6245540;28;20192;-71
2021/09/29 04:22:02;;;;;;;10.43;8.07;;;10.40;99.90;;;;;;6246222;28;20708;-71
2021/09/29 04:25:06;;;;;;;13.43;8.83;;;10.40;99.90;;;;;;6246638;28;20188;-72
2021/09/29 04:28:09;;;;;;;11.73;8.90;;;10.30;99.90;;;;;;6246586;28;20192;-73
2021/09/29 04:31:11;;;;;;;9.20;8.30;;;10.40;99.90;;;;;;6247848;28;20187;-71
2021/09/29 04:34:13;;;;;;;11.00;7.57;;;10.40;99.90;;;;;;6246463;28;20651;-72
2021/09/29 04:37:15;;;;;;;10.10;8.50;;;10.40;99.90;;;;;;6246281;28;20206;-71
2021/09/29 04:40:18;;;;;;;11.17;8.00;;;10.40;99.90;;;;;;6244924;28;20200;-71
2021/09/29 04:43:20;;;;;;;11.33;9.23;;;10.40;99.90;;;;;;6246030;28;20672;-73
2021/09/29 04:46:23;;;;;;;13.83;9.07;;;10.50;99.90;;;;;;6246145;28;20176;-73
2021/09/29 04:49:25;;;;;;;12.20;8.53;;;10.40;99.90;;;;;;6246570;28;20306;-71
2021/09/29 04:52:27;;;;;;;11.07;9.10;;;10.50;99.90;;;;;;6245923;28;20280;-73
2021/09/29 04:55:30;;;;;;;12.27;8.77;;;10.50;99.90;;;;;;6220179;28;20201;-71
2021/09/29 04:58:33;;;;;;;10.43;8.47;;;10.50;99.90;;;;;;6238750;28;20224;-71
2021/09/29 05:01:35;;;;;;;11.63;8.37;;;10.50;99.90;;;;;;6230521;28;20250;-72
2021/09/29 05:04:38;;;;;;;10.37;8.23;;;10.50;99.90;;;;;;6228160;28;20202;-72
2021/09/29 05:07:41;;;;;;;9.90;8.80;;;10.50;99.90;;;;;;6244242;28;20213;-73
2021/09/29 05:11:05;;;;;;;13.17;9.33;;;10.50;99.90;;;;;;6243904;28;20191;-72
2021/09/29 05:14:07;;;;;;;13.23;9.50;;;10.50;99.90;;;;;;6227644;28;20170;-71
2021/09/29 05:17:09;;;;;;;12.80;8.47;;;10.50;99.90;;;;;;6244003;28;20354;-73
2021/09/29 05:20:12;;;;;;;13.57;9.77;;;10.60;99.90;;;;;;6219801;28;20192;-71
2021/09/29 05:23:14;;;;;;;10.00;8.70;;;10.60;99.90;;;;;;6240072;28;20271;-73
2021/09/29 05:26:18;;;;;;;11.63;9.13;;;10.60;99.90;;;;;;6245119;28;20667;-72
2021/09/29 05:29:21;;;;;;;10.47;9.07;;;10.70;99.90;;;;;;6245072;28;20234;-72
2021/09/29 05:32:23;;;;;;;14.37;10.23;;;10.70;99.90;;;;;;6234547;28;20221;-73
2021/09/29 05:35:26;;;;;;;13.27;10.10;;;10.80;99.90;;;;;;6231343;28;20196;-72
2021/09/29 05:38:28;;;;;;;14.17;9.90;;;10.80;99.90;;;;;;6250374;28;20611;-72
2021/09/29 05:41:30;;;;;;;13.43;10.30;;;10.90;99.90;;;;;;6231888;28;20596;-73
2021/09/29 05:44:34;;;;;;;12.70;9.70;;;10.90;99.90;;;;;;6232279;28;20192;-72
2021/09/29 05:47:36;;;;;;;14.60;10.97;;;10.90;99.90;;;;;;6249747;28;20572;-72
2021/09/29 05:50:38;;;;;;;13.77;9.90;;;11.00;99.90;;;;;;6249695;28;20676;-73
2021/09/29 05:53:40;;;;;;;14.63;11.00;;;11.00;99.90;;;;;;6239253;28;20350;-72
2021/09/29 05:56:43;;;;;;;13.80;10.43;;;11.10;99.90;;;;;;6249683;28;20308;-71
2021/09/29 05:59:46;;;;;;;13.67;11.13;;;11.10;99.90;;;;;;6250308;28;20220;-72
2021/09/29 06:02:48;;;;;;;16.00;11.80;;;11.20;99.90;;;;;;6248276;28;20220;-73
2021/09/29 06:05:50;;;;;;;13.10;10.77;;;11.30;99.90;;;;;;6247546;28;20189;-71
2021/09/29 06:08:52;;;;;;;13.93;10.43;;;11.40;99.90;;;;;;6247810;28;20193;-72
2021/09/29 06:11:55;;;;;;;12.93;9.87;;;11.50;99.90;;;;;;6230041;28;20317;-73
2021/09/29 06:14:57;;;;;;;13.17;10.53;;;11.60;99.90;;;;;;6246777;28;20274;-72
2021/09/29 06:18:04;;;;;;;13.17;10.87;;;11.70;99.90;;;;;;6229731;28;20254;-73
2021/09/29 06:21:07;;;;;;;12.37;9.80;;;11.80;99.90;;;;;;6247304;28;20546;-72
2021/09/29 06:24:11;;;;;;;11.20;9.20;;;11.90;99.90;;;;;;6246166;28;20196;-73
2021/09/29 06:27:13;;;;;;;11.63;9.53;;;12.00;99.90;;;;;;6246246;28;20719;-73
2021/09/29 06:30:16;;;;;;;12.73;9.83;;;12.20;99.90;;;;;;6247700;28;20190;-71
2021/09/29 06:33:18;;;;;;;11.43;9.40;;;12.30;99.90;;;;;;6245963;28;20709;-72
2021/09/29 06:36:20;;;;;;;10.90;9.70;;;12.40;99.90;;;;;;6246094;28;20210;-73
2021/09/29 06:39:22;;;;;;;10.60;9.27;;;12.60;99.90;;;;;;6247236;28;20321;-73
2021/09/29 06:42:25;;;;;;;14.93;10.97;;;12.70;99.90;;;;;;6247076;28;20236;-73
2021/09/29 06:45:29;;;;;;;13.30;10.30;;;12.80;99.90;;;;;;6247040;28;20268;-72
2021/09/29 06:48:31;;;;;;;12.17;10.47;;;12.90;99.90;;;;;;6229592;28;20552;-73
2021/09/29 06:51:33;;;;;;;11.70;10.10;;;13.00;99.90;;;;;;6229290;28;20218;-71
2021/09/29 06:54:36;;;;;;;13.20;10.60;;;13.00;99.90;;;;;;6246919;28;20195;-72
2021/09/29 06:57:39;;;;;;;14.37;10.40;;;13.10;99.90;;;;;;6229210;28;20191;-73
2021/09/29 07:00:41;;;;;;;15.17;10.43;;;13.20;99.90;;;;;;6239069;28;20245;-72
2021/09/29 07:03:58;;;;;;;11.33;9.60;;;13.40;99.90;;;;;;6340664;27;20691;-71
2021/09/29 07:07:00;;;;;;;14.47;10.80;;;13.50;99.90;;;;;;6340696;28;20192;-71
2021/09/29 07:10:04;;;;;;;18.20;11.30;;;13.60;99.90;;;;;;6339383;28;20253;-71
2021/09/29 07:13:07;;;;;;;15.77;9.90;;;13.70;99.90;;;;;;6340569;28;20309;-71
2021/09/29 07:16:10;;;;;;;11.10;9.13;;;13.70;99.90;;;;;;6340212;28;20208;-71
2021/09/29 07:19:12;;;;;;;10.20;8.63;;;13.90;99.90;;;;;;6338870;28;20623;-71
2021/09/29 07:22:14;;;;;;;10.17;8.80;;;14.00;99.90;;;;;;6340324;28;20212;-71
2021/09/29 07:25:16;;;;;;;11.23;9.00;;;14.10;99.90;;;;;;6340223;28;20676;-71
2021/09/29 07:28:19;;;;;;;12.87;9.07;;;14.30;99.90;;;;;;6338861;28;20193;-71
2021/09/29 07:31:21;;;;;;;11.73;9.40;;;14.40;99.90;;;;;;6340018;28;20263;-71
2021/09/29 07:34:24;;;;;;;12.53;10.03;;;14.50;99.90;;;;;;6338726;28;20217;-70
2021/09/29 07:37:26;;;;;;;15.20;10.00;;;14.60;99.90;;;;;;6338713;28;20201;-71
2021/09/29 07:40:30;;;;;;;11.80;8.73;;;14.60;99.90;;;;;;6338466;28;20193;-71
2021/09/29 07:43:32;;;;;;;13.73;11.10;;;14.60;99.90;;;;;;6339861;28;20718;-71
2021/09/29 07:46:35;;;;;;;14.07;11.03;;;14.60;99.90;;;;;;6339639;28;20197;-71
2021/09/29 07:49:38;;;;;;;12.67;9.90;;;14.70;99.90;;;;;;6339942;28;20192;-71
2021/09/29 07:52:40;;;;;;;13.33;9.60;;;14.80;99.90;;;;;;6339587;28;20242;-71
2021/09/29 07:55:42;;;;;;;12.70;8.67;;;15.00;99.90;;;;;;6339459;28;20186;-71
2021/09/29 07:58:44;;;;;;;12.20;8.77;;;15.20;99.90;;;;;;6339231;28;20201;-71
2021/09/29 08:01:47;;;;;;;10.40;7.93;;;15.50;99.90;;;;;;6339156;28;20233;-71
2021/09/29 08:04:49;;;;;;;12.57;8.43;;;15.60;99.90;;;;;;6339002;28;20196;-71
2021/09/29 08:07:52;;;;;;;12.70;8.40;;;15.90;99.90;;;;;;6339431;28;20207;-71
2021/09/29 08:10:54;;;;;;;13.03;8.80;;;16.10;99.90;;;;;;6337727;28;20645;-71
2021/09/29 08:13:58;;;;;;;13.40;9.73;;;16.20;99.90;;;;;;6329778;28;20194;-71
2021/09/29 08:17:00;;;;;;;12.50;10.10;;;16.30;99.90;;;;;;6321193;28;20558;-71
2021/09/29 08:20:03;;;;;;;13.63;9.63;;;16.30;99.90;;;;;;6322481;28;20717;-71
2021/09/29 08:23:11;;;;;;;13.50;9.70;;;16.30;99.90;;;;;;6322075;28;20254;-71
2021/09/29 08:36:08;;;;;;;8.97;7.83;;;16.50;99.90;;;;;;6293598;28;20236;-71
2021/09/29 08:39:26;;;;;;;10.87;8.30;;;16.50;99.90;;;;;;6293542;28;20321;-71
2021/09/29 08:45:37;;;;;;;11.17;7.90;;;16.60;99.90;;;;;;6293350;28;20233;-71
2021/09/29 08:48:54;;;;;;;10.47;7.50;;;16.60;99.90;;;;;;6309927;28;20199;-71
2021/09/29 09:18:21;;;;;;;13.23;8.77;;;16.80;99.90;;;;;;6320612;28;20287;-71
2021/09/29 09:21:23;;;;;;;12.47;8.80;;;16.70;99.90;;;;;;6319471;28;20681;-70
2021/09/29 09:24:52;;;;;;;7.87;6.63;;;16.70;99.90;;;;;;6319689;28;20720;-70
2021/09/29 09:27:55;;;;;;;9.07;7.53;;;16.70;99.90;;;;;;6320477;28;20190;-71
2021/09/29 09:31:07;;;;;;;7.53;6.47;;;16.70;99.90;;;;;;6318961;28;20206;-70
2021/09/29 09:34:10;;;;;;;10.27;7.63;;;16.70;99.90;;;;;;6320272;28;20267;-70
2021/09/29 09:37:16;;;;;;;9.33;7.43;;;16.70;99.90;;;;;;6320307;28;20334;-70
2021/09/29 09:40:20;;;;;;;14.23;9.20;;;16.70;99.90;;;;;;6318972;28;20695;-70
2021/09/29 09:43:25;;;;;;;12.90;9.93;;;16.70;99.90;;;;;;6320127;28;20294;-71
2021/09/29 09:46:28;;;;;;;12.83;9.67;;;16.70;99.90;;;;;;6318352;28;20202;-70
2021/09/29 09:49:32;;;;;;;11.27;7.90;;;16.70;99.90;;;;;;6320206;28;20186;-70
2021/09/29 09:52:42;;;;;;;7.80;7.07;;;16.70;99.90;;;;;;6318513;28;20194;-70
2021/09/29 09:55:44;;;;;;;12.23;9.33;;;16.80;99.90;;;;;;6319716;28;20194;-70
2021/09/29 09:58:49;;;;;;;10.73;9.37;;;16.90;99.90;;;;;;6318332;28;20564;-70
2021/09/29 10:01:52;;;;;;;11.63;7.80;;;17.00;99.90;;;;;;6318647;28;20667;-70
2021/09/29 10:04:55;;;;;;;4.30;3.43;;;17.10;99.90;;;;;;6318481;28;20186;-71
2021/09/29 10:08:00;;;;;;;4.17;3.30;;;17.00;99.90;;;;;;6319603;28;20192;-71
2021/09/29 10:11:24;;;;;;;3.07;2.53;;;17.10;99.90;;;;;;6318310;28;20247;-71
2021/09/29 10:27:40;;;;;;;2.10;1.43;;;17.60;99.90;;;;;;6319357;28;20711;-70
2021/09/29 10:34:15;;;;;;;1.23;1.13;;;17.90;99.90;;;;;;6319302;28;20213;-71
2021/09/29 10:47:14;;;;;;;1.87;1.37;;;18.10;99.90;;;;;;6317369;28;20193;-71
2021/09/29 11:27:45;;;;;;;2.37;1.90;;;18.40;99.90;;;;;;6318472;28;20194;-70
2021/09/29 12:08:00;;;;;;;2.40;2.20;;;18.30;99.90;;;;;;6322498;28;20658;-71
2021/09/29 12:11:07;;;;;;;1.90;1.80;;;18.40;99.90;;;;;;6322584;28;20167;-71
2021/09/29 12:14:20;;;;;;;2.33;2.13;;;18.60;99.90;;;;;;6321433;28;20300;-71
2021/09/29 12:17:25;;;;;;;2.50;1.93;;;18.80;99.90;;;;;;6313198;28;20210;-71
2021/09/29 12:20:28;;;;;;;1.63;1.50;;;19.00;99.90;;;;;;6316702;28;20202;-71
2021/09/29 12:23:31;;;;;;;3.60;1.80;;;19.00;99.90;;;;;;6322221;28;20739;-71
2021/09/29 12:26:47;;;;;;;3.00;1.97;;;19.20;99.90;;;;;;6322069;28;20182;-70
2021/09/29 12:29:51;;;;;;;1.70;1.60;;;19.30;99.90;;;;;;6320501;28;20737;-71
2021/09/29 12:36:31;;;;;;;1.57;1.23;;;19.40;99.90;;;;;;6321912;28;20669;-70
2021/09/29 12:39:33;;;;;;;2.10;1.63;;;19.70;99.90;;;;;;6321606;28;20676;-71
2021/09/29 12:43:09;;;;;;;3.40;1.70;;;19.90;99.90;;;;;;6320559;28;20732;-71
2021/09/29 12:46:17;;;;;;;2.10;1.90;;;19.90;99.90;;;;;;6321411;28;20195;-70
2021/09/29 12:49:21;;;;;;;1.63;1.43;;;19.90;99.90;;;;;;6321947;28;20166;-70
2021/09/29 12:52:31;;;;;;;1.80;1.70;;;19.80;99.90;;;;;;6319898;28;20570;-70
2021/09/29 12:55:36;;;;;;;1.80;1.63;;;19.90;99.90;;;;;;6295413;28;20182;-70
2021/09/29 12:58:38;;;;;;;1.83;1.50;;;20.20;99.90;;;;;;6318475;28;20189;-71
2021/09/29 13:01:41;;;;;;;1.53;1.40;;;20.60;99.90;;;;;;6320742;28;20663;-70
2021/09/29 13:04:45;;;;;;;1.50;1.37;;;20.80;99.90;;;;;;6321030;28;20222;-70
2021/09/29 13:07:47;;;;;;;1.50;1.40;;;21.30;99.90;;;;;;6321043;28;20568;-71
2021/09/29 13:10:50;;;;;;;1.60;1.50;;;21.80;99.00;;;;;;6319779;28;20186;-71
2021/09/29 13:13:52;;;;;;;1.73;1.30;;;22.20;96.90;;;;;;6319499;28;20197;-71
2021/09/29 13:16:54;;;;;;;2.13;1.80;;;22.10;96.70;;;;;;6320920;28;20198;-71
2021/09/29 13:20:05;;;;;;;1.60;1.50;;;22.10;97.00;;;;;;6320864;28;20276;-71
2021/09/29 13:23:26;;;;;;;1.70;1.50;;;22.70;95.60;;;;;;6319416;28;20259;-70
2021/09/29 13:35:11;;;;;;;2.27;1.50;;;24.50;90.80;;;;;;6320739;28;20634;-71
2021/09/29 13:36:35;;;;;;;3.23;1.70;;;25.50;85.10;;;;;;6320316;28;20202;-71
2021/09/29 13:39:37;;;;;;;1.80;1.67;;;25.50;84.00;;;;;;6319202;28;20194;-71
2021/09/29 13:42:39;;;;;;;2.47;1.70;;;24.80;83.80;;;;;;6318896;28;20221;-71
2021/09/29 13:45:41;;;;;;;1.80;1.40;;;24.10;86.70;;;;;;6319891;28;20182;-71
2021/09/29 13:48:44;;;;;;;1.77;1.50;;;23.40;88.50;;;;;;6319003;28;20684;-72
2021/09/29 13:51:50;;;;;;;1.83;1.63;;;22.60;90.40;;;;;;6320026;28;20193;-71
2021/09/29 13:54:57;;;;;;;2.20;1.60;;;22.00;91.60;;;;;;6318747;28;20190;-70
2021/09/29 13:58:06;;;;;;;1.87;1.60;;;21.50;92.90;;;;;;6318847;28;20170;-72
2021/09/29 14:31:19;;;;;;;2.80;1.40;;;20.50;95.80;;;;;;6319137;28;20182;-71
2021/09/29 14:34:22;;;;;;;1.47;1.23;;;20.20;96.10;;;;;;6319262;28;20193;-71
2021/09/29 14:37:25;;;;;;;1.93;1.60;;;20.10;96.70;;;;;;6318816;28;20197;-71
2021/09/29 14:40:27;;;;;;;2.47;1.80;;;20.10;96.60;;;;;;6319011;28;20190;-71
2021/09/29 14:43:29;;;;;;;1.40;1.23;;;19.80;96.70;;;;;;6319173;28;20282;-71
2021/09/29 14:46:32;;;;;;;1.87;1.23;;;19.60;97.10;;;;;;6317358;28;20193;-71
2021/09/29 14:49:34;;;;;;;2.60;1.40;;;19.60;97.60;;;;;;6318996;28;20186;-71
2021/09/29 14:52:36;;;;;;;1.87;1.67;;;19.50;98.20;;;;;;6318705;28;20657;-70
2021/09/29 14:55:38;;;;;;;1.40;1.30;;;19.50;98.00;;;;;;6317482;28;20190;-71
2021/09/29 14:58:41;;;;;;;1.70;1.23;;;19.40;98.10;;;;;;6318608;28;20190;-71
2021/09/29 15:01:43;;;;;;;1.20;1.10;;;19.30;98.20;;;;;;6318500;28;20229;-71
2021/09/29 15:04:46;;;;;;;2.93;1.30;;;19.30;98.80;;;;;;6318482;28;20206;-71
2021/09/29 15:07:49;;;;;;;1.77;1.30;;;19.30;99.30;;;;;;6317415;28;20194;-70
2021/09/29 15:10:51;;;;;;;2.00;1.13;;;19.10;99.00;;;;;;6318696;28;20732;-71
2021/09/29 15:14:08;;;;;;;3.90;1.60;;;19.10;98.20;;;;;;6317339;28;20196;-71
2021/09/29 15:17:37;;;;;;;1.70;1.40;;;18.90;98.60;;;;;;6317159;28;20218;-70
2021/09/29 15:24:28;;;;;;;2.17;1.27;;;18.80;98.60;;;;;;6318732;28;20214;-70
2021/09/29 15:50:06;;;;;;;2.47;1.30;;;17.90;98.90;;;;;;6321495;28;20281;-71
2021/09/29 15:53:18;;;;;;;1.50;1.10;;;17.80;99.00;;;;;;6322819;28;20668;-70
2021/09/29 16:02:48;;;;;;;2.17;1.47;;;17.40;99.70;;;;;;6322772;28;20226;-71
2021/09/29 16:05:59;;;;;;;1.97;1.17;;;17.40;99.30;;;;;;6323236;28;20685;-70
2021/09/29 16:13:06;;;;;;;2.03;1.10;;;17.20;99.30;;;;;;6321341;28;20551;-70
2021/09/29 16:33:15;;;;;;;2.93;0.93;;;16.60;99.70;;;;;;6320877;28;20210;-70
2021/09/29 16:35:52;;;;;;;1.57;0.73;;;16.50;99.90;;;;;;6318424;28;20221;-71
2021/09/29 16:38:54;;;;;;;2.43;1.00;;;16.40;99.90;;;;;;6320762;28;20374;-71
2021/09/29 16:41:57;;;;;;;1.23;1.00;;;16.40;99.90;;;;;;6321954;28;20204;-71
2021/09/29 16:45:02;;;;;;;0.87;0.70;;;16.30;99.90;;;;;;6321731;28;20205;-71
2021/09/29 16:48:06;;;;;;;1.63;1.00;;;16.20;99.90;;;;;;6321908;28;20186;-71
2021/09/29 16:54:35;;;;;;;1.43;0.70;;;16.20;99.90;;;;;;6321821;28;20197;-71
2021/09/29 16:57:43;;;;;;;1.20;0.73;;;16.10;99.90;;;;;;6321417;28;20196;-71
2021/09/29 17:00:52;;;;;;;2.10;0.87;;;16.00;99.90;;;;;;6320309;28;20228;-71
2021/09/29 17:03:56;;;;;;;1.20;1.00;;;16.00;99.90;;;;;;6296268;28;20230;-71
2021/09/29 17:06:59;;;;;;;0.80;0.80;;;15.90;99.90;;;;;;6317844;28;20209;-70
2021/09/29 17:10:01;;;;;;;2.40;0.97;;;15.90;99.90;;;;;;6320034;28;20197;-71
2021/09/29 17:13:05;;;;;;;0.70;0.70;;;15.80;99.90;;;;;;6321118;28;20265;-71
2021/09/29 17:16:17;;;;;;;1.70;0.80;;;15.70;99.90;;;;;;6320999;28;20559;-70
2021/09/29 17:19:21;;;;;;;1.30;0.87;;;15.70;99.90;;;;;;6320847;28;20256;-71
2021/09/29 17:22:28;;;;;;;1.13;0.90;;;15.60;99.90;;;;;;6319734;28;20198;-70
2021/09/29 17:25:34;;;;;;;1.43;0.80;;;15.60;99.90;;;;;;6319617;28;20263;-71
2021/09/29 17:28:38;;;;;;;1.40;0.80;;;15.70;99.90;;;;;;6319585;28;20186;-71
2021/09/29 17:54:43;;;;;;;0.93;0.67;;;15.40;99.90;;;;;;6320367;28;20300;-70
2021/09/29 17:57:46;;;;;;;1.23;0.70;;;15.40;99.90;;;;;;6320058;28;20205;-70
2021/09/29 18:00:50;;;;;;;1.67;1.00;;;15.40;99.90;;;;;;6318554;28;20222;-71
2021/09/29 18:04:06;;;;;;;0.70;0.70;;;15.40;99.90;;;;;;6319604;28;20233;-71
2021/09/29 18:10:13;;;;;;;2.37;1.10;;;15.30;99.90;;;;;;6318562;28;20663;-71
2021/09/29 18:13:15;;;;;;;1.63;0.90;;;15.30;99.90;;;;;;6319916;28;20287;-71
2021/09/29 18:16:18;;;;;;;1.80;1.00;;;15.30;99.90;;;;;;6319750;28;20311;-71
2021/09/29 18:19:21;;;;;;;0.80;0.80;;;15.30;99.90;;;;;;6319501;28;20186;-70
2021/09/29 18:22:23;;;;;;;2.60;0.87;;;15.30;99.90;;;;;;6320106;28;20465;-71
2021/09/29 18:25:28;;;;;;;0.70;0.70;;;15.20;99.90;;;;;;6318248;28;20210;-71
2021/09/29 18:28:31;;;;;;;1.57;0.80;;;15.20;99.90;;;;;;6318172;28;20219;-71
2021/09/29 18:31:34;;;;;;;1.10;0.70;;;15.20;99.90;;;;;;6319586;28;20190;-70
2021/09/29 18:34:39;;;;;;;1.67;0.80;;;15.20;99.90;;;;;;6318011;28;20691;-71
2021/09/29 18:37:44;;;;;;;1.10;0.97;;;15.20;99.90;;;;;;6319314;28;20240;-71
2021/09/29 18:40:46;;;;;;;0.80;0.80;;;15.20;99.90;;;;;;6318052;28;20719;-71
2021/09/29 18:43:50;;;;;;;1.03;0.77;;;15.20;99.90;;;;;;6319056;28;20202;-70
2021/09/29 18:46:53;;;;;;;2.30;0.90;;;15.20;99.90;;;;;;6317709;28;20197;-71
2021/09/29 18:49:55;;;;;;;0.83;0.80;;;15.20;99.90;;;;;;6319268;28;20189;-71
2021/09/29 18:52:58;;;;;;;1.37;0.77;;;15.10;99.90;;;;;;6317732;28;20190;-71
2021/09/29 18:56:13;;;;;;;1.83;0.77;;;15.10;99.90;;;;;;6318925;28;20194;-70
2021/09/29 19:09:25;;;;;;;0.80;0.80;;;15.00;99.90;;;;;;6318725;28;20193;-71
2021/09/29 19:12:27;;;;;;;2.13;0.77;;;15.10;99.90;;;;;;6318984;28;20198;-71
2021/09/29 19:15:31;;;;;;;1.83;0.87;;;15.20;99.90;;;;;;6317571;28;20190;-71
2021/09/29 19:18:35;;;;;;;1.00;0.90;;;15.20;99.90;;;;;;6318729;28;20193;-71
2021/09/29 19:21:40;;;;;;;1.50;0.90;;;15.20;99.90;;;;;;6319023;28;20192;-71
2021/09/29 19:24:44;;;;;;;1.13;0.60;;;15.20;99.90;;;;;;6318520;28;20210;-71
2021/09/29 19:27:50;;;;;;;0.93;0.83;;;15.10;99.90;;;;;;6317401;28;20190;-71
2021/09/29 19:31:02;;;;;;;1.57;0.70;;;15.10;99.90;;;;;;6317441;28;20235;-71
2021/09/29 19:34:05;;;;;;;0.90;0.53;;;15.00;99.90;;;;;;6318713;28;20190;-71
2021/09/29 19:37:07;;;;;;;1.37;0.60;;;14.90;99.90;;;;;;6317361;28;20182;-70
2021/09/29 19:40:11;;;;;;;1.20;0.70;;;14.90;99.90;;;;;;6317192;28;20324;-70
2021/09/29 19:43:14;;;;;;;0.93;0.80;;;14.90;99.90;;;;;;6318433;28;20187;-70
2021/09/29 19:46:31;;;;;;;1.17;0.80;;;14.80;99.90;;;;;;6318220;28;20339;-71
2021/09/29 19:49:47;;;;;;;0.90;0.70;;;14.70;99.90;;;;;;6317219;28;20194;-71
2021/09/29 20:09:38;;;;;;;1.23;0.77;;;14.40;99.90;;;;;;6319242;28;20663;-71
2021/09/29 20:12:42;;;;;;;2.43;1.03;;;14.30;99.90;;;;;;6322671;28;20186;-71
2021/09/29 20:15:45;;;;;;;0.70;0.70;;;14.30;99.90;;;;;;6322400;28;20213;-71
2021/09/29 20:18:59;;;;;;;1.13;0.80;;;14.20;99.90;;;;;;6306386;28;20209;-71
2021/09/29 20:22:02;;;;;;;0.93;0.80;;;14.10;99.90;;;;;;6321206;28;20551;-71
2021/09/29 20:25:13;;;;;;;1.53;0.83;;;14.10;99.90;;;;;;6321016;28;20302;-71
2021/09/29 20:28:17;;;;;;;2.27;0.90;;;14.00;99.90;;;;;;6321298;28;20198;-71
2021/09/29 20:31:19;;;;;;;1.73;0.93;;;14.00;99.90;;;;;;6322160;28;20212;-71
2021/09/29 20:44:27;;;;;;;1.13;1.00;;;13.80;99.90;;;;;;6320667;28;20305;-71
2021/09/29 20:47:29;;;;;;;1.50;0.93;;;13.90;99.90;;;;;;6320563;28;20194;-71
2021/09/29 20:50:33;;;;;;;2.77;0.90;;;13.80;99.90;;;;;;6321897;28;20190;-71
2021/09/29 20:53:35;;;;;;;1.20;0.90;;;13.80;99.90;;;;;;6320381;28;20276;-72